createdAt,value
2018-11-29T00:01:33.606Z,79.20
2018-11-29T00:04:06.006Z,79.10
2018-11-29T00:06:37.406Z,79.00
2018-11-29T00:09:11.506Z,80.30
2018-11-29T00:11:42.691Z,80.70
2018-11-29T00:19:56.141Z,81.40
2018-11-29T00:22:28.251Z,81.50
2018-11-29T00:25:00.761Z,81.20
2018-11-29T00:27:33.675Z,80.10
2018-11-29T00:30:07.473Z,79.80
2018-11-29T00:32:40.323Z,79.60
2018-11-29T00:35:13.161Z,79.60
2018-11-29T00:37:44.961Z,80.00
2018-11-29T00:40:19.852Z,80.20
2018-11-29T00:42:52.233Z,80.40
2018-11-29T00:45:27.902Z,80.70
2018-11-29T00:48:00.151Z,80.90
2018-11-29T00:50:33.141Z,81.10
2018-11-29T00:53:05.563Z,81.20
2018-11-29T00:55:38.261Z,81.20
2018-11-29T00:58:10.583Z,80.80
2018-11-29T01:00:42.761Z,80.10
2018-11-29T01:03:14.812Z,79.60
2018-11-29T01:05:47.772Z,79.50
2018-11-29T01:08:20.114Z,79.80
2018-11-29T01:10:52.141Z,80.20
2018-11-29T01:13:25.711Z,80.00
2018-11-29T01:15:58.012Z,80.00
2018-11-29T01:18:31.331Z,80.40
2018-11-29T01:21:04.753Z,80.70
2018-11-29T01:23:36.922Z,81.80
2018-11-29T01:26:09.592Z,82.50
2018-11-29T01:28:42.692Z,82.30
2018-11-29T01:31:15.902Z,82.20
2018-11-29T01:33:48.265Z,82.20
2018-11-29T01:36:20.662Z,82.20
2018-11-29T01:38:53.932Z,81.80
2018-11-29T01:41:27.172Z,81.60
2018-11-29T01:43:59.302Z,81.30
2018-11-29T01:46:31.336Z,81.20
2018-11-29T01:49:03.653Z,81.00
2018-11-29T01:51:36.713Z,80.80
2018-11-29T01:54:09.323Z,80.80
2018-11-29T01:56:41.153Z,81.00
2018-11-29T01:59:13.495Z,81.30
2018-11-29T02:01:45.583Z,81.40
2018-11-29T02:04:18.212Z,80.90
2018-11-29T02:06:50.933Z,81.50
2018-11-29T02:09:23.723Z,81.30
2018-11-29T02:11:56.593Z,81.50
2018-11-29T02:14:29.443Z,81.20
2018-11-29T02:17:01.473Z,81.50
2018-11-29T02:19:34.262Z,81.60
2018-11-29T02:22:07.413Z,81.60
2018-11-29T02:24:42.269Z,81.40
2018-11-29T02:27:14.614Z,81.50
2018-11-29T02:29:47.263Z,81.50
2018-11-29T02:32:19.956Z,81.60
2018-11-29T02:34:53.123Z,81.20
2018-11-29T02:37:25.945Z,80.90
2018-11-29T02:39:58.283Z,81.10
2018-11-29T02:42:30.492Z,80.60
2018-11-29T02:45:02.923Z,80.10
2018-11-29T02:47:35.873Z,79.20
2018-11-29T02:50:09.394Z,78.80
2018-11-29T02:52:41.449Z,79.00
2018-11-29T02:55:13.622Z,78.20
2018-11-29T02:57:46.313Z,78.70
2018-11-29T03:00:19.174Z,79.20
2018-11-29T03:02:51.613Z,79.60
2018-11-29T03:05:24.576Z,79.80
2018-11-29T03:07:57.143Z,80.10
2018-11-29T03:10:30.033Z,80.00
2018-11-29T03:13:02.163Z,79.50
2018-11-29T03:15:34.996Z,79.50
2018-11-29T03:18:07.303Z,80.10
2018-11-29T03:20:39.302Z,80.30
2018-11-29T03:23:12.472Z,80.40
2018-11-29T03:25:45.432Z,80.00
2018-11-29T03:28:17.832Z,80.00
2018-11-29T03:30:50.502Z,79.90
2018-11-29T03:33:23.354Z,79.90
2018-11-29T03:35:56.283Z,79.80
2018-11-29T03:38:28.543Z,79.80
2018-11-29T03:41:01.635Z,79.40
2018-11-29T03:43:34.883Z,79.50
2018-11-29T03:46:08.243Z,79.30
2018-11-29T03:48:41.185Z,79.30
2018-11-29T03:51:13.342Z,79.20
2018-11-29T03:53:46.153Z,79.20
2018-11-29T03:56:18.653Z,79.00
2018-11-29T03:58:50.954Z,79.20
2018-11-29T04:01:23.893Z,79.30
2018-11-29T04:03:56.393Z,80.20
2018-11-29T04:06:28.772Z,80.80
2018-11-29T04:09:01.023Z,80.90
2018-11-29T04:11:32.832Z,80.50
2018-11-29T04:14:05.074Z,80.40
2018-11-29T04:16:38.162Z,80.30
2018-11-29T04:19:10.054Z,80.70
2018-11-29T04:21:42.916Z,80.70
2018-11-29T04:24:15.763Z,80.90
2018-11-29T04:26:48.092Z,80.90
2018-11-29T04:29:20.803Z,81.00
2018-11-29T04:31:53.892Z,81.00
2018-11-29T04:34:27.222Z,80.70
2018-11-29T04:36:59.934Z,80.80
2018-11-29T04:39:32.734Z,80.60
2018-11-29T04:42:05.485Z,80.50
2018-11-29T04:44:38.428Z,80.80
2018-11-29T04:47:10.566Z,80.60
2018-11-29T04:49:43.372Z,80.20
2018-11-29T04:52:16.342Z,80.20
2018-11-29T04:54:49.613Z,80.90
2018-11-29T04:57:21.282Z,80.50
2018-11-29T04:59:54.383Z,80.80
2018-11-29T05:02:27.163Z,81.00
2018-11-29T05:04:59.364Z,80.90
2018-11-29T05:07:31.524Z,81.00
2018-11-29T05:10:04.721Z,81.30
2018-11-29T05:12:36.362Z,81.40
2018-11-29T05:15:10.253Z,81.40
2018-11-29T05:17:42.357Z,81.60
2018-11-29T05:20:15.482Z,81.80
2018-11-29T05:22:47.053Z,81.70
2018-11-29T05:25:20.343Z,81.80
2018-11-29T05:27:53.744Z,82.00
2018-11-29T05:30:27.092Z,81.80
2018-11-29T05:32:59.913Z,81.70
2018-11-29T05:35:32.352Z,81.90
2018-11-29T05:38:05.233Z,82.10
2018-11-29T05:40:38.203Z,81.90
2018-11-29T05:43:10.203Z,81.80
2018-11-29T05:45:43.203Z,81.90
2018-11-29T05:48:15.272Z,82.10
2018-11-29T05:50:47.302Z,82.00
2018-11-29T05:53:19.792Z,82.20
2018-11-29T05:55:53.203Z,82.20
2018-11-29T05:58:26.242Z,82.50
2018-11-29T06:01:01.353Z,82.60
2018-11-29T06:03:33.732Z,82.50
2018-11-29T06:06:07.592Z,82.50
2018-11-29T06:08:40.661Z,82.60
2018-11-29T06:11:14.171Z,82.80
2018-11-29T06:13:46.245Z,83.10
2018-11-29T06:16:19.193Z,83.20
2018-11-29T06:18:52.132Z,83.10
2018-11-29T06:21:26.933Z,82.90
2018-11-29T06:23:59.622Z,82.70
2018-11-29T06:26:31.712Z,82.80
2018-11-29T06:29:04.123Z,83.00
2018-11-29T06:31:37.033Z,83.10
2018-11-29T06:34:09.423Z,83.00
2018-11-29T06:36:41.813Z,83.10
2018-11-29T06:39:14.171Z,83.10
2018-11-29T06:41:47.443Z,83.10
2018-11-29T06:44:19.812Z,83.70
2018-11-29T06:46:52.932Z,83.30
2018-11-29T06:49:25.815Z,83.10
2018-11-29T06:51:59.383Z,83.30
2018-11-29T06:54:31.603Z,83.50
2018-11-29T06:57:03.933Z,83.00
2018-11-29T06:59:37.113Z,82.90
2018-11-29T07:02:11.033Z,83.00
2018-11-29T07:04:43.713Z,83.10
2018-11-29T07:07:16.261Z,83.00
2018-11-29T07:09:48.283Z,83.20
2018-11-29T07:12:21.553Z,83.40
2018-11-29T07:14:54.572Z,83.60
2018-11-29T07:17:27.073Z,83.60
2018-11-29T07:19:59.392Z,83.50
2018-11-29T07:22:32.733Z,83.50
2018-11-29T07:25:04.653Z,83.50
2018-11-29T07:27:37.703Z,83.70
2018-11-29T07:30:17.425Z,83.20
2018-11-29T07:32:49.682Z,82.90
2018-11-29T07:35:23.132Z,83.30
2018-11-29T07:37:56.223Z,82.90
2018-11-29T07:40:29.172Z,83.00
2018-11-29T07:43:01.185Z,83.10
2018-11-29T07:45:33.552Z,83.10
2018-11-29T07:48:06.003Z,83.20
2018-11-29T07:50:38.632Z,83.30
2018-11-29T07:53:11.362Z,83.30
2018-11-29T07:55:44.591Z,83.10
2018-11-29T07:58:17.662Z,83.30
2018-11-29T08:00:51.554Z,83.40
2018-11-29T08:03:23.612Z,83.50
2018-11-29T08:05:57.061Z,83.70
2018-11-29T08:08:29.591Z,83.60
2018-11-29T08:11:02.722Z,83.60
2018-11-29T08:13:35.082Z,83.30
2018-11-29T08:16:07.702Z,83.40
2018-11-29T08:18:40.681Z,82.80
2018-11-29T08:21:13.603Z,82.60
2018-11-29T08:23:45.651Z,81.90
2018-11-29T08:26:18.286Z,82.20
2018-11-29T08:28:50.641Z,81.20
2018-11-29T08:31:24.143Z,80.40
2018-11-29T08:33:56.522Z,80.50
2018-11-29T08:36:29.396Z,80.50
2018-11-29T08:39:01.742Z,80.70
2018-11-29T08:41:34.704Z,81.10
2018-11-29T08:44:07.612Z,81.60
2018-11-29T08:46:40.473Z,81.90
2018-11-29T08:49:13.352Z,82.20
2018-11-29T08:51:47.012Z,82.30
2018-11-29T08:54:20.816Z,82.30
2018-11-29T08:56:54.312Z,82.50
2018-11-29T08:59:26.321Z,82.50
2018-11-29T09:01:59.065Z,82.20
2018-11-29T09:04:31.643Z,82.20
2018-11-29T09:07:05.141Z,82.40
2018-11-29T09:09:36.712Z,82.40
2018-11-29T09:12:09.533Z,82.70
2018-11-29T09:14:42.302Z,82.60
2018-11-29T09:17:14.602Z,82.70
2018-11-29T09:19:47.193Z,83.10
2018-11-29T09:22:20.535Z,82.50
2018-11-29T09:24:52.692Z,82.50
2018-11-29T09:27:24.992Z,82.50
2018-11-29T09:29:57.509Z,82.00
2018-11-29T09:32:30.143Z,82.20
2018-11-29T09:35:03.102Z,82.10
2018-11-29T09:37:35.884Z,81.60
2018-11-29T09:40:11.013Z,81.70
2018-11-29T09:42:43.954Z,81.60
2018-11-29T09:45:19.852Z,81.20
2018-11-29T09:47:55.282Z,81.60
2018-11-29T09:50:27.912Z,81.00
2018-11-29T09:53:00.382Z,81.70
2018-11-29T09:55:32.516Z,81.30
2018-11-29T09:58:04.602Z,80.70
2018-11-29T10:00:37.504Z,80.70
2018-11-29T10:03:12.803Z,80.00
2018-11-29T10:05:45.834Z,80.40
2018-11-29T10:08:25.908Z,79.80
2018-11-29T10:10:52.403Z,79.50
2018-11-29T10:13:24.412Z,79.40
2018-11-29T10:15:56.843Z,79.50
2018-11-29T10:18:30.182Z,79.30
2018-11-29T10:21:03.433Z,79.00
2018-11-29T10:23:36.923Z,79.00
2018-11-29T10:26:09.972Z,78.60
2018-11-29T10:28:43.673Z,77.70
2018-11-29T10:31:15.575Z,77.60
2018-11-29T10:33:48.074Z,78.60
2018-11-29T10:36:21.023Z,78.10
2018-11-29T10:38:53.742Z,78.50
2018-11-29T10:41:26.263Z,78.10
2018-11-29T10:43:58.617Z,78.30
2018-11-29T10:46:31.872Z,78.00
2018-11-29T10:49:03.926Z,77.70
2018-11-29T10:51:37.063Z,77.90
2018-11-29T10:54:09.692Z,77.80
2018-11-29T10:56:42.686Z,77.80
2018-11-29T10:59:14.663Z,77.10
2018-11-29T11:01:52.043Z,77.40
2018-11-29T11:04:24.383Z,77.40
2018-11-29T11:06:57.333Z,77.40
2018-11-29T11:09:30.283Z,76.90
2018-11-29T11:12:02.923Z,76.60
2018-11-29T11:14:36.302Z,76.90
2018-11-29T11:17:08.034Z,77.40
2018-11-29T11:19:40.303Z,76.50
2018-11-29T11:22:13.182Z,76.70
2018-11-29T11:24:45.501Z,76.60
2018-11-29T11:27:17.983Z,76.50
2018-11-29T11:29:51.073Z,76.70
2018-11-29T11:32:24.945Z,76.50
2018-11-29T11:34:57.974Z,76.60
2018-11-29T11:37:31.204Z,76.40
2018-11-29T11:40:03.022Z,76.50
2018-11-29T11:42:35.954Z,76.90
2018-11-29T11:45:09.833Z,77.10
2018-11-29T11:47:42.823Z,76.60
2018-11-29T11:50:22.655Z,76.10
2018-11-29T11:52:55.833Z,76.30
2018-11-29T11:55:30.255Z,76.40
2018-11-29T11:58:01.954Z,76.20
2018-11-29T12:00:35.573Z,76.20
2018-11-29T12:03:11.284Z,76.40
2018-11-29T12:05:43.645Z,76.30
2018-11-29T12:08:16.766Z,76.20
2018-11-29T12:10:49.853Z,76.20
2018-11-29T12:13:21.654Z,76.10
2018-11-29T12:15:53.314Z,75.90
2018-11-29T12:18:25.694Z,75.80
2018-11-29T12:20:58.052Z,75.60
2018-11-29T12:23:31.585Z,75.60
2018-11-29T12:26:04.772Z,75.60
2018-11-29T12:28:37.334Z,75.70
2018-11-29T12:31:10.733Z,75.50
2018-11-29T12:33:44.012Z,75.60
2018-11-29T12:36:17.477Z,75.30
2018-11-29T12:38:50.724Z,75.30
2018-11-29T12:41:22.663Z,75.40
2018-11-29T12:43:55.804Z,75.30
2018-11-29T12:46:28.032Z,75.50
2018-11-29T12:49:00.273Z,75.10
2018-11-29T12:51:32.774Z,75.20
2018-11-29T12:54:05.792Z,75.30
2018-11-29T12:56:38.723Z,74.80
2018-11-29T12:59:11.346Z,75.10
2018-11-29T13:01:43.674Z,75.30
2018-11-29T13:04:16.515Z,75.50
2018-11-29T13:06:48.192Z,75.70
2018-11-29T13:09:21.573Z,75.60
2018-11-29T13:11:54.176Z,75.40
2018-11-29T13:14:26.555Z,75.10
2018-11-29T13:16:59.283Z,75.30
2018-11-29T13:19:32.332Z,75.20
2018-11-29T13:22:05.523Z,75.40
2018-11-29T13:24:39.023Z,75.30
2018-11-29T13:27:12.453Z,75.60
2018-11-29T13:29:44.723Z,76.00
2018-11-29T13:32:17.533Z,75.20
2018-11-29T13:34:50.862Z,75.20
2018-11-29T13:37:24.110Z,75.10
2018-11-29T13:39:56.924Z,75.00
2018-11-29T13:42:30.079Z,75.10
2018-11-29T13:45:02.165Z,75.20
2018-11-29T13:47:34.714Z,75.40
2018-11-29T13:50:07.684Z,75.50
2018-11-29T13:52:40.572Z,75.30
2018-11-29T13:55:13.914Z,75.40
2018-11-29T13:57:46.813Z,74.90
2018-11-29T14:00:26.294Z,75.10
2018-11-29T14:03:01.203Z,75.20
2018-11-29T14:05:33.595Z,75.40
2018-11-29T14:08:06.721Z,75.40
2018-11-29T14:10:38.663Z,75.50
2018-11-29T14:13:12.372Z,75.50
2018-11-29T14:15:45.362Z,75.70
2018-11-29T14:18:18.393Z,76.20
2018-11-29T14:20:51.203Z,76.50
2018-11-29T14:23:24.334Z,76.40
2018-11-29T14:25:56.633Z,76.40
2018-11-29T14:28:29.573Z,76.60
2018-11-29T14:31:01.144Z,76.80
2018-11-29T14:33:34.129Z,76.90
2018-11-29T14:36:06.842Z,76.80
2018-11-29T14:38:41.314Z,76.90
2018-11-29T14:41:13.823Z,76.70
2018-11-29T14:43:47.013Z,77.10
2018-11-29T14:46:18.993Z,76.80
2018-11-29T14:48:51.894Z,77.00
2018-11-29T14:51:24.735Z,77.10
2018-11-29T14:53:57.953Z,76.50
2018-11-29T14:56:30.853Z,76.20
2018-11-29T14:59:03.712Z,76.10
2018-11-29T15:01:34.781Z,76.60
2018-11-29T15:04:07.453Z,76.30
2018-11-29T15:06:40.534Z,75.50
2018-11-29T15:09:13.973Z,75.30
2018-11-29T15:11:46.597Z,75.50
2018-11-29T15:14:19.052Z,75.60
2018-11-29T15:16:51.673Z,76.00
2018-11-29T15:19:25.102Z,76.40
2018-11-29T15:21:57.132Z,76.40
2018-11-29T15:24:30.323Z,76.90
2018-11-29T15:27:03.226Z,76.80
2018-11-29T15:29:36.553Z,77.30
2018-11-29T15:32:09.393Z,77.70
2018-11-29T15:34:42.105Z,77.50
2018-11-29T15:37:14.933Z,77.50
2018-11-29T15:39:47.543Z,77.70
2018-11-29T15:42:19.843Z,78.10
2018-11-29T15:44:52.663Z,78.10
2018-11-29T15:47:25.873Z,78.30
2018-11-29T15:49:59.622Z,77.90
2018-11-29T15:52:33.705Z,77.70
2018-11-29T15:55:07.939Z,77.70
2018-11-29T15:57:40.463Z,78.00
2018-11-29T16:00:21.053Z,78.10
2018-11-29T16:02:53.275Z,78.40
2018-11-29T16:05:26.592Z,78.80
2018-11-29T16:07:59.083Z,78.80
2018-11-29T16:10:32.726Z,78.70
2018-11-29T16:13:05.602Z,78.40
2018-11-29T16:15:39.256Z,78.10
2018-11-29T16:18:13.029Z,78.50
2018-11-29T16:20:45.891Z,78.50
2018-11-29T16:23:19.487Z,78.40
2018-11-29T16:25:52.393Z,78.70
2018-11-29T16:28:25.237Z,78.30
2018-11-29T16:30:59.713Z,79.40
2018-11-29T16:33:34.595Z,78.80
2018-11-29T16:36:06.924Z,79.10
2018-11-29T16:38:39.863Z,79.20
2018-11-29T16:41:12.383Z,79.30
2018-11-29T16:43:44.853Z,78.80
2018-11-29T16:46:18.302Z,78.90
2018-11-29T16:48:50.914Z,78.90
2018-11-29T16:51:23.272Z,79.00
2018-11-29T16:53:55.453Z,79.00
2018-11-29T16:56:28.843Z,79.10
2018-11-29T16:59:01.982Z,79.50
2018-11-29T17:01:34.633Z,79.40
2018-11-29T17:04:07.353Z,79.30
2018-11-29T17:06:40.172Z,79.80
2018-11-29T17:09:13.613Z,79.70
2018-11-29T17:11:47.830Z,79.50
2018-11-29T17:14:19.971Z,79.40
2018-11-29T17:16:52.063Z,79.40
2018-11-29T17:19:24.843Z,79.40
2018-11-29T17:21:57.512Z,79.40
2018-11-29T17:24:30.473Z,79.60
2018-11-29T17:27:03.713Z,79.50
2018-11-29T17:29:36.513Z,79.60
2018-11-29T17:32:08.832Z,79.70
2018-11-29T17:34:41.001Z,79.90
2018-11-29T17:37:14.342Z,80.00
2018-11-29T17:39:46.992Z,80.20
2018-11-29T17:42:19.413Z,80.50
2018-11-29T17:44:52.356Z,80.60
2018-11-29T17:47:25.652Z,80.40
2018-11-29T17:49:59.002Z,80.30
2018-11-29T17:52:30.713Z,80.60
2018-11-29T17:55:02.992Z,80.80
2018-11-29T17:57:36.313Z,80.80
2018-11-29T18:00:16.453Z,80.90
2018-11-29T18:02:48.794Z,81.90
2018-11-29T18:05:21.423Z,81.00
2018-11-29T18:07:54.292Z,81.00
2018-11-29T18:10:28.772Z,81.10
2018-11-29T18:13:06.213Z,81.30
2018-11-29T18:15:39.992Z,81.50
2018-11-29T18:18:12.953Z,81.30
2018-11-29T18:20:46.264Z,81.50
2018-11-29T18:23:18.322Z,81.30
2018-11-29T18:25:51.092Z,81.40
2018-11-29T18:28:23.593Z,81.50
2018-11-29T18:30:57.322Z,81.30
2018-11-29T18:33:29.373Z,81.20
2018-11-29T18:36:02.282Z,81.30
2018-11-29T18:38:35.232Z,81.40
2018-11-29T18:41:08.353Z,81.50
2018-11-29T18:43:40.292Z,81.70
2018-11-29T18:46:17.186Z,81.70
2018-11-29T18:48:45.722Z,81.70
2018-11-29T18:51:19.502Z,81.80
2018-11-29T18:53:53.152Z,82.00
2018-11-29T18:56:25.884Z,82.00
2018-11-29T18:58:58.232Z,81.90
2018-11-29T19:01:31.293Z,82.00
2018-11-29T19:04:04.493Z,81.80
2018-11-29T19:06:38.091Z,83.40
2018-11-29T19:09:12.362Z,81.40
2018-11-29T19:11:45.872Z,81.80
2018-11-29T19:14:19.222Z,81.80
2018-11-29T19:16:52.584Z,81.70
2018-11-29T19:19:24.981Z,81.90
2018-11-29T19:21:58.052Z,81.90
2018-11-29T19:24:30.712Z,81.90
2018-11-29T19:27:03.753Z,81.90
2018-11-29T19:29:35.784Z,81.90
2018-11-29T19:32:09.088Z,82.00
2018-11-29T19:34:42.382Z,82.20
2018-11-29T19:37:15.652Z,82.10
2018-11-29T19:39:49.052Z,82.20
2018-11-29T19:42:21.731Z,82.30
2018-11-29T19:44:54.232Z,82.40
2018-11-29T19:47:27.611Z,82.50
2018-11-29T19:50:00.803Z,82.50
2018-11-29T19:52:34.262Z,82.40
2018-11-29T19:55:06.182Z,82.50
2018-11-29T19:57:38.915Z,82.50
2018-11-29T20:00:13.482Z,82.50
2018-11-29T20:02:47.263Z,82.60
2018-11-29T20:05:19.981Z,82.80
2018-11-29T20:07:53.152Z,82.80
2018-11-29T20:10:25.312Z,82.90
2018-11-29T20:13:02.912Z,82.80
2018-11-29T20:15:35.502Z,82.70
2018-11-29T20:18:08.501Z,82.70
2018-11-29T20:20:41.452Z,82.90
2018-11-29T20:23:14.202Z,82.90
2018-11-29T20:25:47.432Z,83.00
2018-11-29T20:28:20.382Z,83.00
2018-11-29T20:30:53.722Z,83.20
2018-11-29T20:33:27.452Z,83.30
2018-11-29T20:36:01.102Z,83.10
2018-11-29T20:38:34.452Z,83.20
2018-11-29T20:41:06.092Z,83.40
2018-11-29T20:43:38.972Z,83.70
2018-11-29T20:46:12.379Z,83.70
2018-11-29T20:48:46.172Z,83.70
2018-11-29T20:51:19.252Z,83.90
2018-11-29T20:53:51.985Z,84.10
2018-11-29T20:56:24.851Z,83.90
2018-11-29T20:58:57.562Z,84.10
2018-11-29T21:01:31.032Z,84.00
2018-11-29T21:04:05.102Z,84.00
2018-11-29T21:06:38.202Z,84.10
2018-11-29T21:09:13.483Z,84.30
2018-11-29T21:11:47.896Z,84.30
2018-11-29T21:14:21.142Z,84.40
2018-11-29T21:16:54.151Z,84.10
2018-11-29T21:19:26.433Z,83.60
2018-11-29T21:21:59.392Z,84.10
2018-11-29T21:24:32.041Z,84.20
2018-11-29T21:27:04.852Z,84.00
2018-11-29T21:29:38.081Z,84.00
2018-11-29T21:32:11.641Z,84.10
2018-11-29T21:34:43.862Z,84.20
2018-11-29T21:37:16.621Z,84.10
2018-11-29T21:39:49.202Z,84.40
2018-11-29T21:42:21.543Z,84.50
2018-11-29T21:44:53.902Z,84.70
2018-11-29T21:47:26.902Z,84.70
2018-11-29T21:50:00.054Z,84.80
2018-11-29T21:52:33.861Z,84.70
2018-11-29T21:55:07.481Z,84.40
2018-11-29T21:57:40.751Z,84.40
2018-11-29T22:00:16.932Z,85.00
2018-11-29T22:02:53.190Z,84.20
2018-11-29T22:05:26.141Z,84.10
2018-11-29T22:07:59.591Z,84.30
2018-11-29T22:10:31.702Z,84.40
2018-11-29T22:13:05.012Z,84.30
2018-11-29T22:15:37.112Z,84.10
2018-11-29T22:18:13.863Z,84.40
2018-11-29T22:20:46.304Z,84.50
2018-11-29T22:23:19.411Z,84.50
2018-11-29T22:25:52.723Z,84.30
2018-11-29T22:28:25.033Z,84.30
2018-11-29T22:30:58.012Z,84.70
2018-11-29T22:33:30.351Z,84.80
2018-11-29T22:36:02.651Z,84.90
2018-11-29T22:38:35.101Z,85.00
2018-11-29T22:41:07.491Z,84.90
2018-11-29T22:43:39.653Z,85.10
2018-11-29T22:46:12.602Z,85.40
2018-11-29T22:48:45.592Z,85.10
2018-11-29T22:51:18.662Z,84.80
2018-11-29T22:53:51.372Z,84.80
2018-11-29T22:56:23.424Z,84.90
2018-11-29T22:58:56.471Z,84.90
2018-11-29T23:01:29.961Z,85.10
2018-11-29T23:04:03.582Z,85.30
2018-11-29T23:06:36.932Z,85.40
2018-11-29T23:09:11.952Z,85.40
2018-11-29T23:11:45.160Z,85.40
2018-11-29T23:14:18.975Z,85.50
2018-11-29T23:16:52.102Z,85.60
2018-11-29T23:19:26.032Z,85.50
2018-11-29T23:21:59.292Z,85.60
2018-11-29T23:24:32.513Z,85.60
2018-11-29T23:27:04.702Z,85.50
2018-11-29T23:29:38.102Z,85.30
2018-11-29T23:32:10.142Z,85.50
2018-11-29T23:34:44.481Z,85.60
2018-11-29T23:37:17.341Z,85.90
2018-11-29T23:39:50.463Z,85.80
2018-11-29T23:42:21.812Z,85.80
2018-11-29T23:44:53.952Z,85.60
2018-11-29T23:47:25.742Z,85.50
2018-11-29T23:49:58.762Z,85.50
2018-11-29T23:52:31.392Z,85.60
2018-11-29T23:55:03.741Z,85.70
2018-11-29T23:57:36.152Z,85.70
